sensor_id;sensor_type;location;lat;lon;timestamp;P1;durP1;ratioP1;P2;durP2;ratioP2
59147;SDS011;44930;52.878;6.168;2023-05-19T00:02:13;11.15;;;4.00;;
59147;SDS011;44930;52.878;6.168;2023-05-19T00:04:40;14.60;;;4.13;;
59147;SDS011;44930;52.878;6.168;2023-05-19T00:07:06;10.38;;;4.85;;
59147;SDS011;44930;52.878;6.168;2023-05-19T00:09:35;12.55;;;4.18;;
59147;SDS011;44930;52.878;6.168;2023-05-19T00:12:01;11.40;;;4.03;;
59147;SDS011;44930;52.878;6.168;2023-05-19T00:14:27;15.25;;;5.25;;
59147;SDS011;44930;52.878;6.168;2023-05-19T00:16:53;9.10;;;3.80;;
59147;SDS011;44930;52.878;6.168;2023-05-19T00:19:20;11.18;;;4.38;;
59147;SDS011;44930;52.878;6.168;2023-05-19T00:21:46;11.63;;;4.65;;
59147;SDS011;44930;52.878;6.168;2023-05-19T00:24:11;13.70;;;4.28;;
59147;SDS011;44930;52.878;6.168;2023-05-19T00:26:37;12.57;;;4.50;;
59147;SDS011;44930;52.878;6.168;2023-05-19T00:29:03;13.82;;;4.50;;
59147;SDS011;44930;52.878;6.168;2023-05-19T00:31:28;7.72;;;4.32;;
59147;SDS011;44930;52.878;6.168;2023-05-19T00:33:55;13.05;;;4.93;;
59147;SDS011;44930;52.878;6.168;2023-05-19T00:36:21;10.23;;;4.32;;
59147;SDS011;44930;52.878;6.168;2023-05-19T00:38:46;11.93;;;4.82;;
59147;SDS011;44930;52.878;6.168;2023-05-19T00:41:12;12.52;;;4.55;;
59147;SDS011;44930;52.878;6.168;2023-05-19T00:43:38;8.82;;;4.07;;
59147;SDS011;44930;52.878;6.168;2023-05-19T00:46:03;13.57;;;4.72;;
59147;SDS011;44930;52.878;6.168;2023-05-19T00:48:29;8.77;;;4.75;;
59147;SDS011;44930;52.878;6.168;2023-05-19T00:50:55;8.48;;;4.13;;
59147;SDS011;44930;52.878;6.168;2023-05-19T00:53:26;13.38;;;4.63;;
59147;SDS011;44930;52.878;6.168;2023-05-19T00:55:52;14.55;;;4.85;;
59147;SDS011;44930;52.878;6.168;2023-05-19T00:58:17;13.90;;;4.63;;
59147;SDS011;44930;52.878;6.168;2023-05-19T01:00:43;8.20;;;4.78;;
59147;SDS011;44930;52.878;6.168;2023-05-19T01:03:09;11.07;;;4.78;;
59147;SDS011;44930;52.878;6.168;2023-05-19T01:05:44;11.43;;;5.55;;
59147;SDS011;44930;52.878;6.168;2023-05-19T01:08:11;8.52;;;4.25;;
59147;SDS011;44930;52.878;6.168;2023-05-19T01:10:37;16.33;;;4.78;;
59147;SDS011;44930;52.878;6.168;2023-05-19T01:13:03;8.27;;;4.43;;
59147;SDS011;44930;52.878;6.168;2023-05-19T01:15:29;15.63;;;5.25;;
59147;SDS011;44930;52.878;6.168;2023-05-19T01:20:48;9.55;;;5.18;;
59147;SDS011;44930;52.878;6.168;2023-05-19T01:31:28;10.32;;;4.90;;
59147;SDS011;44930;52.878;6.168;2023-05-19T01:33:55;11.63;;;4.93;;
59147;SDS011;44930;52.878;6.168;2023-05-19T01:36:21;10.52;;;4.97;;
59147;SDS011;44930;52.878;6.168;2023-05-19T01:38:50;15.02;;;5.10;;
59147;SDS011;44930;52.878;6.168;2023-05-19T01:41:18;9.45;;;5.18;;
59147;SDS011;44930;52.878;6.168;2023-05-19T01:43:45;11.52;;;5.47;;
59147;SDS011;44930;52.878;6.168;2023-05-19T01:46:12;12.27;;;5.15;;
59147;SDS011;44930;52.878;6.168;2023-05-19T01:48:38;9.50;;;4.85;;
59147;SDS011;44930;52.878;6.168;2023-05-19T01:51:05;14.93;;;4.10;;
59147;SDS011;44930;52.878;6.168;2023-05-19T01:53:31;12.93;;;5.60;;
59147;SDS011;44930;52.878;6.168;2023-05-19T01:55:56;11.30;;;6.45;;
59147;SDS011;44930;52.878;6.168;2023-05-19T02:01:19;7.07;;;4.07;;
59147;SDS011;44930;52.878;6.168;2023-05-19T02:12:27;13.85;;;6.15;;
59147;SDS011;44930;52.878;6.168;2023-05-19T02:15:06;12.95;;;5.68;;
59147;SDS011;44930;52.878;6.168;2023-05-19T02:17:42;11.68;;;4.90;;
59147;SDS011;44930;52.878;6.168;2023-05-19T02:20:12;10.57;;;5.25;;
59147;SDS011;44930;52.878;6.168;2023-05-19T02:22:41;10.35;;;5.60;;
59147;SDS011;44930;52.878;6.168;2023-05-19T02:25:07;8.27;;;4.40;;
59147;SDS011;44930;52.878;6.168;2023-05-19T02:27:35;11.23;;;5.13;;
59147;SDS011;44930;52.878;6.168;2023-05-19T02:30:05;14.30;;;5.93;;
59147;SDS011;44930;52.878;6.168;2023-05-19T02:32:32;11.70;;;6.43;;
59147;SDS011;44930;52.878;6.168;2023-05-19T02:34:58;14.05;;;6.07;;
59147;SDS011;44930;52.878;6.168;2023-05-19T02:37:24;11.20;;;6.18;;
59147;SDS011;44930;52.878;6.168;2023-05-19T02:39:52;14.90;;;6.78;;
59147;SDS011;44930;52.878;6.168;2023-05-19T02:42:18;14.32;;;6.40;;
59147;SDS011;44930;52.878;6.168;2023-05-19T02:44:44;13.57;;;6.30;;
59147;SDS011;44930;52.878;6.168;2023-05-19T02:47:10;9.32;;;6.05;;
59147;SDS011;44930;52.878;6.168;2023-05-19T02:49:35;13.20;;;6.70;;
59147;SDS011;44930;52.878;6.168;2023-05-19T02:52:02;21.30;;;5.93;;
59147;SDS011;44930;52.878;6.168;2023-05-19T02:54:31;9.85;;;5.15;;
59147;SDS011;44930;52.878;6.168;2023-05-19T02:56:57;11.27;;;5.25;;
59147;SDS011;44930;52.878;6.168;2023-05-19T02:59:24;11.02;;;5.15;;
59147;SDS011;44930;52.878;6.168;2023-05-19T03:01:51;11.32;;;5.60;;
59147;SDS011;44930;52.878;6.168;2023-05-19T03:04:19;8.07;;;5.13;;
59147;SDS011;44930;52.878;6.168;2023-05-19T03:06:45;8.82;;;5.20;;
59147;SDS011;44930;52.878;6.168;2023-05-19T03:09:11;15.52;;;5.93;;
59147;SDS011;44930;52.878;6.168;2023-05-19T03:11:37;15.63;;;6.15;;
59147;SDS011;44930;52.878;6.168;2023-05-19T03:14:03;15.07;;;5.55;;
59147;SDS011;44930;52.878;6.168;2023-05-19T03:16:29;14.15;;;5.43;;
59147;SDS011;44930;52.878;6.168;2023-05-19T03:18:55;8.93;;;5.40;;
59147;SDS011;44930;52.878;6.168;2023-05-19T03:21:21;12.50;;;6.50;;
59147;SDS011;44930;52.878;6.168;2023-05-19T03:23:47;13.43;;;5.93;;
59147;SDS011;44930;52.878;6.168;2023-05-19T03:26:12;11.40;;;6.13;;
59147;SDS011;44930;52.878;6.168;2023-05-19T03:28:38;12.90;;;6.15;;
59147;SDS011;44930;52.878;6.168;2023-05-19T03:31:03;16.80;;;5.97;;
59147;SDS011;44930;52.878;6.168;2023-05-19T03:33:29;12.40;;;5.35;;
59147;SDS011;44930;52.878;6.168;2023-05-19T03:35:55;13.32;;;6.00;;
59147;SDS011;44930;52.878;6.168;2023-05-19T03:38:21;13.35;;;5.75;;
59147;SDS011;44930;52.878;6.168;2023-05-19T03:40:46;11.00;;;6.18;;
59147;SDS011;44930;52.878;6.168;2023-05-19T03:43:12;9.88;;;5.28;;
59147;SDS011;44930;52.878;6.168;2023-05-19T03:45:38;9.90;;;5.32;;
59147;SDS011;44930;52.878;6.168;2023-05-19T03:48:04;12.65;;;5.47;;
59147;SDS011;44930;52.878;6.168;2023-05-19T03:50:29;16.58;;;5.95;;
59147;SDS011;44930;52.878;6.168;2023-05-19T03:52:55;12.63;;;7.07;;
59147;SDS011;44930;52.878;6.168;2023-05-19T03:55:21;12.80;;;5.25;;
59147;SDS011;44930;52.878;6.168;2023-05-19T03:57:47;10.68;;;6.10;;
59147;SDS011;44930;52.878;6.168;2023-05-19T04:00:12;11.40;;;5.75;;
59147;SDS011;44930;52.878;6.168;2023-05-19T04:02:39;11.20;;;5.95;;
59147;SDS011;44930;52.878;6.168;2023-05-19T04:05:05;9.75;;;5.57;;
59147;SDS011;44930;52.878;6.168;2023-05-19T04:07:31;14.13;;;5.78;;
59147;SDS011;44930;52.878;6.168;2023-05-19T04:09:56;13.60;;;6.50;;
59147;SDS011;44930;52.878;6.168;2023-05-19T04:12:22;10.18;;;6.53;;
59147;SDS011;44930;52.878;6.168;2023-05-19T04:14:48;9.98;;;6.07;;
59147;SDS011;44930;52.878;6.168;2023-05-19T04:17:13;11.43;;;5.32;;
59147;SDS011;44930;52.878;6.168;2023-05-19T04:19:39;8.10;;;5.18;;
59147;SDS011;44930;52.878;6.168;2023-05-19T04:22:05;11.45;;;5.57;;
59147;SDS011;44930;52.878;6.168;2023-05-19T04:24:30;10.15;;;5.57;;
59147;SDS011;44930;52.878;6.168;2023-05-19T04:26:57;11.00;;;5.57;;
59147;SDS011;44930;52.878;6.168;2023-05-19T04:29:26;12.65;;;7.10;;
59147;SDS011;44930;52.878;6.168;2023-05-19T04:31:53;10.55;;;6.40;;
59147;SDS011;44930;52.878;6.168;2023-05-19T04:34:19;9.65;;;6.25;;
59147;SDS011;44930;52.878;6.168;2023-05-19T04:36:45;11.30;;;5.80;;
59147;SDS011;44930;52.878;6.168;2023-05-19T04:39:10;10.63;;;5.60;;
59147;SDS011;44930;52.878;6.168;2023-05-19T04:41:36;15.60;;;5.68;;
59147;SDS011;44930;52.878;6.168;2023-05-19T04:44:04;11.95;;;5.90;;
59147;SDS011;44930;52.878;6.168;2023-05-19T04:46:32;13.45;;;6.30;;
59147;SDS011;44930;52.878;6.168;2023-05-19T04:48:58;12.55;;;6.10;;
59147;SDS011;44930;52.878;6.168;2023-05-19T04:51:25;16.02;;;6.03;;
59147;SDS011;44930;52.878;6.168;2023-05-19T04:53:52;15.40;;;6.13;;
59147;SDS011;44930;52.878;6.168;2023-05-19T04:56:18;14.60;;;6.30;;
59147;SDS011;44930;52.878;6.168;2023-05-19T04:58:44;13.85;;;6.82;;
59147;SDS011;44930;52.878;6.168;2023-05-19T05:01:10;15.90;;;7.10;;
59147;SDS011;44930;52.878;6.168;2023-05-19T05:03:37;14.27;;;6.68;;
59147;SDS011;44930;52.878;6.168;2023-05-19T05:06:03;15.93;;;7.43;;
59147;SDS011;44930;52.878;6.168;2023-05-19T05:08:30;13.98;;;7.75;;
59147;SDS011;44930;52.878;6.168;2023-05-19T05:10:56;22.15;;;7.55;;
59147;SDS011;44930;52.878;6.168;2023-05-19T05:13:22;19.30;;;7.47;;
59147;SDS011;44930;52.878;6.168;2023-05-19T05:15:48;24.38;;;7.75;;
59147;SDS011;44930;52.878;6.168;2023-05-19T05:18:16;21.23;;;9.10;;
59147;SDS011;44930;52.878;6.168;2023-05-19T05:20:42;17.75;;;8.57;;
59147;SDS011;44930;52.878;6.168;2023-05-19T05:23:08;18.13;;;8.25;;
59147;SDS011;44930;52.878;6.168;2023-05-19T05:25:38;19.23;;;8.80;;
59147;SDS011;44930;52.878;6.168;2023-05-19T05:28:04;19.35;;;9.80;;
59147;SDS011;44930;52.878;6.168;2023-05-19T05:30:30;15.05;;;7.72;;
59147;SDS011;44930;52.878;6.168;2023-05-19T05:32:57;13.55;;;7.82;;
59147;SDS011;44930;52.878;6.168;2023-05-19T05:35:23;13.90;;;7.40;;
59147;SDS011;44930;52.878;6.168;2023-05-19T05:37:49;14.55;;;8.77;;
59147;SDS011;44930;52.878;6.168;2023-05-19T05:40:14;17.90;;;8.70;;
59147;SDS011;44930;52.878;6.168;2023-05-19T05:42:40;15.95;;;8.27;;
59147;SDS011;44930;52.878;6.168;2023-05-19T05:45:06;17.60;;;8.23;;
59147;SDS011;44930;52.878;6.168;2023-05-19T05:47:32;15.98;;;7.88;;
59147;SDS011;44930;52.878;6.168;2023-05-19T05:49:58;16.85;;;8.02;;
59147;SDS011;44930;52.878;6.168;2023-05-19T05:52:28;11.95;;;7.20;;
59147;SDS011;44930;52.878;6.168;2023-05-19T05:54:54;17.20;;;8.20;;
59147;SDS011;44930;52.878;6.168;2023-05-19T05:57:21;16.50;;;8.73;;
59147;SDS011;44930;52.878;6.168;2023-05-19T05:59:46;17.20;;;8.77;;
59147;SDS011;44930;52.878;6.168;2023-05-19T06:02:12;15.73;;;6.28;;
59147;SDS011;44930;52.878;6.168;2023-05-19T06:04:38;15.75;;;8.77;;
59147;SDS011;44930;52.878;6.168;2023-05-19T06:07:04;16.30;;;7.40;;
59147;SDS011;44930;52.878;6.168;2023-05-19T06:09:30;10.88;;;6.43;;
59147;SDS011;44930;52.878;6.168;2023-05-19T06:11:56;13.32;;;7.10;;
59147;SDS011;44930;52.878;6.168;2023-05-19T06:14:23;24.63;;;7.75;;
59147;SDS011;44930;52.878;6.168;2023-05-19T06:16:48;14.45;;;6.40;;
59147;SDS011;44930;52.878;6.168;2023-05-19T06:19:14;17.08;;;6.45;;
59147;SDS011;44930;52.878;6.168;2023-05-19T06:21:40;16.30;;;6.50;;
59147;SDS011;44930;52.878;6.168;2023-05-19T06:24:07;13.15;;;5.35;;
59147;SDS011;44930;52.878;6.168;2023-05-19T06:26:32;10.82;;;7.30;;
59147;SDS011;44930;52.878;6.168;2023-05-19T06:28:58;12.35;;;5.82;;
59147;SDS011;44930;52.878;6.168;2023-05-19T06:31:23;17.70;;;5.78;;
59147;SDS011;44930;52.878;6.168;2023-05-19T06:33:50;18.95;;;7.05;;
59147;SDS011;44930;52.878;6.168;2023-05-19T06:36:17;20.38;;;6.50;;
59147;SDS011;44930;52.878;6.168;2023-05-19T06:38:43;12.88;;;5.80;;
59147;SDS011;44930;52.878;6.168;2023-05-19T06:41:08;15.00;;;6.03;;
59147;SDS011;44930;52.878;6.168;2023-05-19T06:43:34;15.38;;;5.25;;
59147;SDS011;44930;52.878;6.168;2023-05-19T06:46:00;10.35;;;4.68;;
59147;SDS011;44930;52.878;6.168;2023-05-19T06:48:25;11.88;;;5.00;;
59147;SDS011;44930;52.878;6.168;2023-05-19T06:50:51;9.63;;;5.00;;
59147;SDS011;44930;52.878;6.168;2023-05-19T06:53:17;17.88;;;6.32;;
59147;SDS011;44930;52.878;6.168;2023-05-19T06:55:43;9.40;;;4.50;;
59147;SDS011;44930;52.878;6.168;2023-05-19T06:58:10;6.97;;;3.95;;
59147;SDS011;44930;52.878;6.168;2023-05-19T07:00:35;15.82;;;4.45;;
59147;SDS011;44930;52.878;6.168;2023-05-19T07:03:01;10.05;;;4.07;;
59147;SDS011;44930;52.878;6.168;2023-05-19T07:05:27;9.95;;;4.10;;
59147;SDS011;44930;52.878;6.168;2023-05-19T07:07:52;12.00;;;4.03;;
59147;SDS011;44930;52.878;6.168;2023-05-19T07:10:18;9.65;;;3.35;;
59147;SDS011;44930;52.878;6.168;2023-05-19T07:12:45;9.65;;;3.60;;
59147;SDS011;44930;52.878;6.168;2023-05-19T07:15:14;12.73;;;3.92;;
59147;SDS011;44930;52.878;6.168;2023-05-19T07:17:39;7.38;;;2.58;;
59147;SDS011;44930;52.878;6.168;2023-05-19T07:20:05;11.05;;;3.00;;
59147;SDS011;44930;52.878;6.168;2023-05-19T07:22:34;11.45;;;3.78;;
59147;SDS011;44930;52.878;6.168;2023-05-19T07:24:59;7.60;;;2.60;;
59147;SDS011;44930;52.878;6.168;2023-05-19T07:27:25;6.90;;;2.80;;
59147;SDS011;44930;52.878;6.168;2023-05-19T07:29:51;7.00;;;2.92;;
59147;SDS011;44930;52.878;6.168;2023-05-19T07:32:16;9.93;;;3.78;;
59147;SDS011;44930;52.878;6.168;2023-05-19T07:34:42;12.10;;;3.38;;
59147;SDS011;44930;52.878;6.168;2023-05-19T07:37:08;9.52;;;3.28;;
59147;SDS011;44930;52.878;6.168;2023-05-19T07:39:33;12.77;;;2.83;;
59147;SDS011;44930;52.878;6.168;2023-05-19T07:41:59;6.78;;;2.78;;
59147;SDS011;44930;52.878;6.168;2023-05-19T07:44:25;9.43;;;3.55;;
59147;SDS011;44930;52.878;6.168;2023-05-19T07:46:52;8.20;;;3.08;;
59147;SDS011;44930;52.878;6.168;2023-05-19T07:49:18;7.30;;;2.80;;
59147;SDS011;44930;52.878;6.168;2023-05-19T07:51:44;11.55;;;2.80;;
59147;SDS011;44930;52.878;6.168;2023-05-19T07:54:10;10.82;;;2.58;;
59147;SDS011;44930;52.878;6.168;2023-05-19T07:56:35;9.27;;;2.70;;
59147;SDS011;44930;52.878;6.168;2023-05-19T07:59:01;9.23;;;2.70;;
59147;SDS011;44930;52.878;6.168;2023-05-19T08:01:28;6.93;;;2.53;;
59147;SDS011;44930;52.878;6.168;2023-05-19T08:03:54;8.25;;;2.45;;
59147;SDS011;44930;52.878;6.168;2023-05-19T08:06:20;6.32;;;2.58;;
59147;SDS011;44930;52.878;6.168;2023-05-19T08:08:46;10.60;;;2.85;;
59147;SDS011;44930;52.878;6.168;2023-05-19T08:11:12;8.20;;;2.50;;
59147;SDS011;44930;52.878;6.168;2023-05-19T08:13:37;7.80;;;3.10;;
59147;SDS011;44930;52.878;6.168;2023-05-19T08:16:03;15.25;;;3.30;;
59147;SDS011;44930;52.878;6.168;2023-05-19T08:18:29;6.93;;;2.75;;
59147;SDS011;44930;52.878;6.168;2023-05-19T08:20:55;9.80;;;3.13;;
59147;SDS011;44930;52.878;6.168;2023-05-19T08:23:20;7.32;;;2.67;;
59147;SDS011;44930;52.878;6.168;2023-05-19T08:25:46;7.70;;;2.30;;
59147;SDS011;44930;52.878;6.168;2023-05-19T08:28:12;7.57;;;2.47;;
59147;SDS011;44930;52.878;6.168;2023-05-19T08:30:38;9.18;;;2.72;;
59147;SDS011;44930;52.878;6.168;2023-05-19T08:33:04;5.78;;;1.90;;
59147;SDS011;44930;52.878;6.168;2023-05-19T08:35:30;8.75;;;2.53;;
59147;SDS011;44930;52.878;6.168;2023-05-19T08:37:55;6.18;;;1.80;;
59147;SDS011;44930;52.878;6.168;2023-05-19T08:40:21;10.85;;;2.50;;
59147;SDS011;44930;52.878;6.168;2023-05-19T08:42:47;9.55;;;2.75;;
59147;SDS011;44930;52.878;6.168;2023-05-19T08:45:13;9.77;;;3.00;;
59147;SDS011;44930;52.878;6.168;2023-05-19T08:47:43;9.55;;;2.40;;
59147;SDS011;44930;52.878;6.168;2023-05-19T08:50:10;9.40;;;2.35;;
59147;SDS011;44930;52.878;6.168;2023-05-19T08:52:41;5.22;;;1.90;;
59147;SDS011;44930;52.878;6.168;2023-05-19T08:57:46;8.38;;;2.40;;
59147;SDS011;44930;52.878;6.168;2023-05-19T09:00:13;8.63;;;2.63;;
59147;SDS011;44930;52.878;6.168;2023-05-19T09:02:40;8.07;;;2.47;;
59147;SDS011;44930;52.878;6.168;2023-05-19T09:05:06;8.43;;;2.35;;
59147;SDS011;44930;52.878;6.168;2023-05-19T09:07:32;5.70;;;2.70;;
59147;SDS011;44930;52.878;6.168;2023-05-19T09:10:01;6.60;;;2.80;;
59147;SDS011;44930;52.878;6.168;2023-05-19T09:12:28;7.03;;;2.17;;
59147;SDS011;44930;52.878;6.168;2023-05-19T09:14:54;8.70;;;2.45;;
59147;SDS011;44930;52.878;6.168;2023-05-19T09:17:19;6.97;;;2.20;;
59147;SDS011;44930;52.878;6.168;2023-05-19T09:19:45;8.48;;;2.08;;
59147;SDS011;44930;52.878;6.168;2023-05-19T09:22:14;7.90;;;2.00;;
59147;SDS011;44930;52.878;6.168;2023-05-19T09:24:40;6.85;;;2.05;;
59147;SDS011;44930;52.878;6.168;2023-05-19T09:27:06;6.88;;;2.00;;
59147;SDS011;44930;52.878;6.168;2023-05-19T09:29:32;8.75;;;2.08;;
59147;SDS011;44930;52.878;6.168;2023-05-19T09:31:58;7.43;;;2.47;;
59147;SDS011;44930;52.878;6.168;2023-05-19T09:34:29;6.40;;;2.10;;
59147;SDS011;44930;52.878;6.168;2023-05-19T09:36:55;8.55;;;2.10;;
59147;SDS011;44930;52.878;6.168;2023-05-19T09:39:21;6.30;;;2.25;;
59147;SDS011;44930;52.878;6.168;2023-05-19T09:41:53;4.65;;;1.80;;
59147;SDS011;44930;52.878;6.168;2023-05-19T09:44:23;6.38;;;2.20;;
59147;SDS011;44930;52.878;6.168;2023-05-19T09:46:56;10.32;;;2.40;;
59147;SDS011;44930;52.878;6.168;2023-05-19T09:49:26;8.43;;;2.20;;
59147;SDS011;44930;52.878;6.168;2023-05-19T09:51:57;7.07;;;1.90;;
59147;SDS011;44930;52.878;6.168;2023-05-19T09:54:24;7.93;;;1.90;;
59147;SDS011;44930;52.878;6.168;2023-05-19T09:56:56;6.68;;;2.00;;
59147;SDS011;44930;52.878;6.168;2023-05-19T09:59:23;9.43;;;2.22;;
59147;SDS011;44930;52.878;6.168;2023-05-19T10:01:53;6.32;;;2.00;;
59147;SDS011;44930;52.878;6.168;2023-05-19T10:04:21;5.53;;;2.20;;
59147;SDS011;44930;52.878;6.168;2023-05-19T10:06:52;7.95;;;2.60;;
59147;SDS011;44930;52.878;6.168;2023-05-19T10:09:22;6.82;;;2.17;;
59147;SDS011;44930;52.878;6.168;2023-05-19T10:11:51;6.10;;;1.92;;
59147;SDS011;44930;52.878;6.168;2023-05-19T10:14:21;9.57;;;2.35;;
59147;SDS011;44930;52.878;6.168;2023-05-19T10:16:51;5.72;;;1.80;;
59147;SDS011;44930;52.878;6.168;2023-05-19T10:19:22;9.98;;;2.20;;
59147;SDS011;44930;52.878;6.168;2023-05-19T10:21:49;5.95;;;1.95;;
59147;SDS011;44930;52.878;6.168;2023-05-19T10:24:15;6.97;;;1.98;;
59147;SDS011;44930;52.878;6.168;2023-05-19T10:26:43;5.75;;;2.20;;
59147;SDS011;44930;52.878;6.168;2023-05-19T10:29:26;5.10;;;2.13;;
59147;SDS011;44930;52.878;6.168;2023-05-19T10:31:54;10.00;;;2.55;;
59147;SDS011;44930;52.878;6.168;2023-05-19T10:37:07;5.68;;;2.00;;
59147;SDS011;44930;52.878;6.168;2023-05-19T10:39:55;5.18;;;2.28;;
59147;SDS011;44930;52.878;6.168;2023-05-19T10:42:30;5.82;;;2.17;;
59147;SDS011;44930;52.878;6.168;2023-05-19T10:47:42;5.55;;;1.88;;
59147;SDS011;44930;52.878;6.168;2023-05-19T10:50:08;7.88;;;1.98;;
59147;SDS011;44930;52.878;6.168;2023-05-19T10:52:38;5.60;;;2.03;;
59147;SDS011;44930;52.878;6.168;2023-05-19T10:55:08;4.68;;;1.58;;
59147;SDS011;44930;52.878;6.168;2023-05-19T10:57:39;5.55;;;2.08;;
59147;SDS011;44930;52.878;6.168;2023-05-19T11:00:28;7.63;;;2.05;;
59147;SDS011;44930;52.878;6.168;2023-05-19T11:03:11;7.35;;;2.17;;
59147;SDS011;44930;52.878;6.168;2023-05-19T11:05:37;10.68;;;2.05;;
59147;SDS011;44930;52.878;6.168;2023-05-19T11:08:04;5.90;;;2.70;;
59147;SDS011;44930;52.878;6.168;2023-05-19T11:10:35;5.28;;;1.67;;
59147;SDS011;44930;52.878;6.168;2023-05-19T11:13:01;4.10;;;1.48;;
59147;SDS011;44930;52.878;6.168;2023-05-19T11:15:28;8.45;;;1.58;;
59147;SDS011;44930;52.878;6.168;2023-05-19T11:17:59;5.03;;;1.90;;
59147;SDS011;44930;52.878;6.168;2023-05-19T11:20:26;3.70;;;1.65;;
59147;SDS011;44930;52.878;6.168;2023-05-19T11:23:05;9.05;;;2.05;;
59147;SDS011;44930;52.878;6.168;2023-05-19T11:25:44;4.20;;;1.88;;
59147;SDS011;44930;52.878;6.168;2023-05-19T11:28:18;4.35;;;1.73;;
59147;SDS011;44930;52.878;6.168;2023-05-19T11:30:46;4.53;;;1.83;;
59147;SDS011;44930;52.878;6.168;2023-05-19T11:33:16;7.75;;;2.15;;
59147;SDS011;44930;52.878;6.168;2023-05-19T11:35:44;11.80;;;1.88;;
59147;SDS011;44930;52.878;6.168;2023-05-19T11:38:11;9.30;;;2.65;;
59147;SDS011;44930;52.878;6.168;2023-05-19T11:40:39;4.90;;;1.98;;
59147;SDS011;44930;52.878;6.168;2023-05-19T11:43:06;6.50;;;2.35;;
59147;SDS011;44930;52.878;6.168;2023-05-19T11:45:32;6.18;;;2.00;;
59147;SDS011;44930;52.878;6.168;2023-05-19T11:47:58;19.60;;;4.72;;
59147;SDS011;44930;52.878;6.168;2023-05-19T11:50:24;6.22;;;2.58;;
59147;SDS011;44930;52.878;6.168;2023-05-19T11:52:51;7.13;;;2.13;;
59147;SDS011;44930;52.878;6.168;2023-05-19T11:55:20;5.10;;;1.98;;
59147;SDS011;44930;52.878;6.168;2023-05-19T12:00:22;11.05;;;2.97;;
59147;SDS011;44930;52.878;6.168;2023-05-19T12:02:49;8.13;;;2.35;;
59147;SDS011;44930;52.878;6.168;2023-05-19T12:05:21;6.00;;;2.10;;
59147;SDS011;44930;52.878;6.168;2023-05-19T12:07:48;5.00;;;2.00;;
59147;SDS011;44930;52.878;6.168;2023-05-19T12:10:15;7.88;;;1.88;;
59147;SDS011;44930;52.878;6.168;2023-05-19T12:12:44;4.03;;;2.05;;
59147;SDS011;44930;52.878;6.168;2023-05-19T12:15:10;7.88;;;2.33;;
59147;SDS011;44930;52.878;6.168;2023-05-19T12:17:35;7.53;;;2.38;;
59147;SDS011;44930;52.878;6.168;2023-05-19T12:20:01;9.75;;;1.90;;
59147;SDS011;44930;52.878;6.168;2023-05-19T12:22:28;5.50;;;2.00;;
59147;SDS011;44930;52.878;6.168;2023-05-19T12:24:54;14.80;;;5.10;;
59147;SDS011;44930;52.878;6.168;2023-05-19T12:27:23;18.13;;;5.75;;
59147;SDS011;44930;52.878;6.168;2023-05-19T12:29:53;8.93;;;2.75;;
59147;SDS011;44930;52.878;6.168;2023-05-19T12:32:24;6.78;;;2.40;;
59147;SDS011;44930;52.878;6.168;2023-05-19T12:34:51;5.57;;;2.00;;
59147;SDS011;44930;52.878;6.168;2023-05-19T12:37:20;8.60;;;2.58;;
59147;SDS011;44930;52.878;6.168;2023-05-19T12:39:49;8.10;;;2.40;;
59147;SDS011;44930;52.878;6.168;2023-05-19T12:42:14;6.35;;;2.50;;
59147;SDS011;44930;52.878;6.168;2023-05-19T12:44:43;6.65;;;2.35;;
59147;SDS011;44930;52.878;6.168;2023-05-19T12:47:11;9.93;;;3.28;;
59147;SDS011;44930;52.878;6.168;2023-05-19T12:50:28;6.40;;;2.22;;
59147;SDS011;44930;52.878;6.168;2023-05-19T12:54:49;6.18;;;2.17;;
59147;SDS011;44930;52.878;6.168;2023-05-19T12:57:21;7.95;;;2.38;;
59147;SDS011;44930;52.878;6.168;2023-05-19T12:59:47;10.60;;;2.20;;
59147;SDS011;44930;52.878;6.168;2023-05-19T13:02:13;5.68;;;2.30;;
59147;SDS011;44930;52.878;6.168;2023-05-19T13:04:39;7.90;;;2.90;;
59147;SDS011;44930;52.878;6.168;2023-05-19T13:07:05;6.53;;;2.58;;
59147;SDS011;44930;52.878;6.168;2023-05-19T13:09:31;11.63;;;2.83;;
59147;SDS011;44930;52.878;6.168;2023-05-19T13:11:59;8.68;;;2.50;;
59147;SDS011;44930;52.878;6.168;2023-05-19T13:14:24;7.70;;;2.38;;
59147;SDS011;44930;52.878;6.168;2023-05-19T13:16:50;7.60;;;2.85;;
59147;SDS011;44930;52.878;6.168;2023-05-19T13:19:16;7.57;;;2.42;;
59147;SDS011;44930;52.878;6.168;2023-05-19T13:21:43;4.10;;;1.95;;
59147;SDS011;44930;52.878;6.168;2023-05-19T13:24:11;7.15;;;2.25;;
59147;SDS011;44930;52.878;6.168;2023-05-19T13:26:37;6.25;;;2.58;;
59147;SDS011;44930;52.878;6.168;2023-05-19T13:29:04;8.20;;;3.00;;
59147;SDS011;44930;52.878;6.168;2023-05-19T13:31:30;9.07;;;2.15;;
59147;SDS011;44930;52.878;6.168;2023-05-19T13:33:55;7.82;;;3.15;;
59147;SDS011;44930;52.878;6.168;2023-05-19T13:36:21;11.15;;;2.47;;
59147;SDS011;44930;52.878;6.168;2023-05-19T13:38:46;7.15;;;2.30;;
59147;SDS011;44930;52.878;6.168;2023-05-19T13:41:12;7.50;;;2.47;;
59147;SDS011;44930;52.878;6.168;2023-05-19T13:43:38;7.10;;;2.28;;
59147;SDS011;44930;52.878;6.168;2023-05-19T13:46:03;7.43;;;2.33;;
59147;SDS011;44930;52.878;6.168;2023-05-19T13:48:29;4.90;;;2.20;;
59147;SDS011;44930;52.878;6.168;2023-05-19T13:50:55;7.90;;;2.20;;
59147;SDS011;44930;52.878;6.168;2023-05-19T13:53:20;5.95;;;2.38;;
59147;SDS011;44930;52.878;6.168;2023-05-19T13:55:46;6.63;;;2.28;;
59147;SDS011;44930;52.878;6.168;2023-05-19T13:58:12;8.38;;;2.25;;
59147;SDS011;44930;52.878;6.168;2023-05-19T14:00:39;12.27;;;2.20;;
59147;SDS011;44930;52.878;6.168;2023-05-19T14:03:05;7.60;;;3.05;;
59147;SDS011;44930;52.878;6.168;2023-05-19T14:05:31;10.23;;;2.47;;
59147;SDS011;44930;52.878;6.168;2023-05-19T14:07:57;8.65;;;2.35;;
59147;SDS011;44930;52.878;6.168;2023-05-19T14:10:24;6.57;;;1.63;;
59147;SDS011;44930;52.878;6.168;2023-05-19T14:12:50;5.85;;;2.00;;
59147;SDS011;44930;52.878;6.168;2023-05-19T14:15:18;8.63;;;2.42;;
59147;SDS011;44930;52.878;6.168;2023-05-19T14:17:44;7.97;;;2.50;;
59147;SDS011;44930;52.878;6.168;2023-05-19T14:20:09;10.68;;;2.53;;
59147;SDS011;44930;52.878;6.168;2023-05-19T14:22:35;12.25;;;2.83;;
59147;SDS011;44930;52.878;6.168;2023-05-19T14:25:01;9.05;;;2.45;;
59147;SDS011;44930;52.878;6.168;2023-05-19T14:27:27;6.07;;;2.15;;
59147;SDS011;44930;52.878;6.168;2023-05-19T14:29:52;7.40;;;1.90;;
59147;SDS011;44930;52.878;6.168;2023-05-19T14:32:18;11.02;;;2.50;;
59147;SDS011;44930;52.878;6.168;2023-05-19T14:34:43;9.02;;;2.80;;
59147;SDS011;44930;52.878;6.168;2023-05-19T14:37:09;9.43;;;3.10;;
59147;SDS011;44930;52.878;6.168;2023-05-19T14:39:34;8.40;;;2.60;;
59147;SDS011;44930;52.878;6.168;2023-05-19T14:42:00;9.00;;;2.83;;
59147;SDS011;44930;52.878;6.168;2023-05-19T14:44:29;7.70;;;2.45;;
59147;SDS011;44930;52.878;6.168;2023-05-19T14:46:56;8.48;;;2.60;;
59147;SDS011;44930;52.878;6.168;2023-05-19T14:49:23;7.35;;;2.30;;
59147;SDS011;44930;52.878;6.168;2023-05-19T14:51:48;4.90;;;2.45;;
59147;SDS011;44930;52.878;6.168;2023-05-19T14:54:14;8.10;;;2.35;;
59147;SDS011;44930;52.878;6.168;2023-05-19T14:56:39;11.13;;;2.90;;
59147;SDS011;44930;52.878;6.168;2023-05-19T14:59:05;8.10;;;2.50;;
59147;SDS011;44930;52.878;6.168;2023-05-19T15:01:31;6.22;;;2.03;;
59147;SDS011;44930;52.878;6.168;2023-05-19T15:03:56;8.30;;;2.40;;
59147;SDS011;44930;52.878;6.168;2023-05-19T15:06:22;7.35;;;2.45;;
59147;SDS011;44930;52.878;6.168;2023-05-19T15:08:47;9.75;;;2.88;;
59147;SDS011;44930;52.878;6.168;2023-05-19T15:11:13;9.40;;;3.10;;
59147;SDS011;44930;52.878;6.168;2023-05-19T15:13:38;7.65;;;2.50;;
59147;SDS011;44930;52.878;6.168;2023-05-19T15:16:04;15.45;;;2.65;;